createdAt,value
2019-04-03T00:00:24.751Z,12.90
2019-04-03T00:02:52.474Z,8.33
2019-04-03T00:05:19.928Z,7.30
2019-04-03T00:07:47.490Z,12.90
2019-04-03T00:10:15.118Z,8.37
2019-04-03T00:12:42.774Z,7.10
2019-04-03T00:15:13.232Z,13.03
2019-04-03T00:17:38.863Z,8.93
2019-04-03T00:20:06.436Z,8.27
2019-04-03T00:22:34.009Z,8.87
2019-04-03T00:25:01.575Z,12.73
2019-04-03T00:27:29.139Z,11.13
2019-04-03T00:29:56.697Z,8.03
2019-04-03T00:32:26.192Z,14.50
2019-04-03T00:34:53.946Z,8.53
2019-04-03T00:37:21.541Z,10.90
2019-04-03T00:39:48.959Z,12.93
2019-04-03T00:42:16.538Z,8.27
2019-04-03T00:44:44.096Z,7.50
2019-04-03T00:47:11.657Z,15.30
2019-04-03T00:49:39.217Z,18.63
2019-04-03T00:52:06.806Z,8.20
2019-04-03T00:54:34.409Z,9.20
2019-04-03T00:57:01.970Z,10.53
2019-04-03T00:59:29.661Z,8.87
2019-04-03T01:01:57.910Z,9.98
2019-04-03T01:04:28.264Z,9.97
2019-04-03T01:06:53.080Z,8.23
2019-04-03T01:09:20.651Z,12.27
2019-04-03T01:11:48.211Z,11.00
2019-04-03T01:14:16.539Z,10.47
2019-04-03T01:16:44.098Z,11.48
2019-04-03T01:19:11.656Z,11.57
2019-04-03T01:21:39.210Z,10.93
2019-04-03T01:24:08.485Z,11.03
2019-04-03T01:26:35.327Z,10.90
2019-04-03T01:29:02.880Z,10.53
2019-04-03T01:31:31.583Z,9.60
2019-04-03T01:34:01.833Z,14.50
2019-04-03T01:36:29.390Z,12.47
2019-04-03T01:38:57.010Z,10.50
2019-04-03T01:41:24.550Z,11.57
2019-04-03T01:43:53.747Z,8.47
2019-04-03T01:46:19.703Z,14.20
2019-04-03T01:48:47.255Z,9.90
2019-04-03T01:51:14.812Z,11.47
2019-04-03T01:53:42.372Z,9.60
2019-04-03T01:56:09.940Z,11.43
2019-04-03T01:58:37.490Z,7.73
2019-04-03T02:01:06.293Z,8.53
2019-04-03T02:03:33.746Z,11.00
2019-04-03T02:06:01.182Z,9.03
2019-04-03T02:08:28.739Z,12.27
2019-04-03T02:10:56.339Z,12.00
2019-04-03T02:13:24.700Z,11.67
2019-04-03T02:15:52.857Z,7.43
2019-04-03T02:18:19.848Z,15.27
2019-04-03T02:20:47.645Z,8.70
2019-04-03T02:23:16.094Z,17.90
2019-04-03T02:25:44.561Z,8.63
2019-04-03T02:28:12.183Z,7.23
2019-04-03T02:30:39.678Z,7.57
2019-04-03T02:33:07.240Z,9.60
2019-04-03T02:35:34.811Z,7.87
2019-04-03T02:38:02.572Z,13.60
2019-04-03T02:40:32.699Z,6.50
2019-04-03T02:42:57.584Z,7.60
2019-04-03T02:45:25.146Z,6.47
2019-04-03T02:47:53.020Z,7.50
2019-04-03T02:50:23.180Z,10.13
2019-04-03T02:52:50.708Z,10.93
2019-04-03T02:55:18.276Z,8.73
2019-04-03T02:57:48.671Z,8.07
2019-04-03T03:00:13.430Z,8.60
2019-04-03T03:02:45.440Z,5.70
2019-04-03T03:05:10.321Z,5.93
2019-04-03T03:07:37.896Z,7.63
2019-04-03T03:10:05.476Z,12.00
2019-04-03T03:12:33.090Z,6.87
2019-04-03T03:15:00.634Z,9.27
2019-04-03T03:17:28.451Z,6.80
2019-04-03T03:19:55.908Z,6.80
2019-04-03T03:22:23.487Z,5.80
2019-04-03T03:24:51.046Z,4.40
2019-04-03T03:27:19.485Z,6.00
2019-04-03T03:29:47.410Z,7.93
2019-04-03T03:32:19.846Z,7.10
2019-04-03T03:34:55.964Z,4.50
2019-04-03T03:37:12.233Z,5.60
2019-04-03T03:39:37.432Z,7.67
2019-04-03T03:42:05.188Z,7.03
2019-04-03T03:44:32.609Z,8.27
2019-04-03T03:47:01.916Z,8.03
2019-04-03T03:49:27.777Z,5.50
2019-04-03T03:51:56.336Z,6.60
2019-04-03T03:54:23.961Z,9.50
2019-04-03T03:56:51.687Z,5.27
2019-04-03T03:59:19.617Z,6.10
2019-04-03T04:01:46.853Z,6.40
2019-04-03T04:04:17.249Z,7.87
2019-04-03T04:06:45.660Z,7.10
2019-04-03T04:09:15.574Z,7.60
2019-04-03T04:11:43.105Z,8.97
2019-04-03T04:14:10.382Z,6.00
2019-04-03T04:16:38.390Z,8.43
2019-04-03T04:19:05.540Z,7.10
2019-04-03T04:21:33.100Z,7.90
2019-04-03T04:24:00.666Z,9.60
2019-04-03T04:26:28.241Z,8.40
2019-04-03T04:28:55.803Z,8.90
2019-04-03T04:31:23.359Z,8.37
2019-04-03T04:33:50.915Z,6.53
2019-04-03T04:36:18.483Z,7.80
2019-04-03T04:38:46.039Z,9.23
2019-04-03T04:41:13.603Z,11.53
2019-04-03T04:43:42.077Z,7.47
2019-04-03T04:46:09.736Z,11.43
2019-04-03T04:48:37.122Z,15.90
2019-04-03T04:51:05.704Z,7.20
2019-04-03T04:53:33.266Z,9.70
2019-04-03T04:56:00.839Z,10.17
2019-04-03T04:58:28.393Z,9.90
2019-04-03T05:00:55.960Z,10.20
2019-04-03T05:03:23.519Z,12.93
2019-04-03T05:05:51.078Z,9.67
2019-04-03T05:08:18.631Z,11.23
2019-04-03T05:10:48.617Z,13.63
2019-04-03T05:13:15.851Z,10.07
2019-04-03T05:15:41.401Z,8.70
2019-04-03T05:18:08.959Z,10.57
2019-04-03T05:20:36.523Z,13.30
2019-04-03T05:23:06.120Z,12.57
2019-04-03T05:25:33.632Z,10.60
2019-04-03T05:28:04.430Z,8.13
2019-04-03T05:30:31.486Z,8.17
2019-04-03T05:32:59.046Z,8.20
2019-04-03T05:35:26.791Z,8.80
2019-04-03T05:37:54.279Z,8.53
2019-04-03T05:40:21.803Z,6.00
2019-04-03T05:42:49.359Z,5.73
2019-04-03T05:45:17.018Z,4.93
2019-04-03T05:47:46.479Z,7.13
2019-04-03T05:50:15.091Z,6.10
2019-04-03T05:52:44.723Z,4.70
2019-04-03T05:55:12.298Z,5.55
2019-04-03T05:57:39.826Z,6.70
2019-04-03T06:00:07.557Z,5.33
2019-04-03T06:02:35.748Z,5.60
2019-04-03T06:05:06.714Z,6.10
2019-04-03T06:07:34.743Z,6.47
2019-04-03T06:10:02.809Z,4.73
2019-04-03T06:12:29.896Z,8.00
2019-04-03T06:14:59.403Z,4.90
2019-04-03T06:17:26.965Z,9.80
2019-04-03T06:19:54.519Z,6.10
2019-04-03T06:22:22.203Z,8.97
2019-04-03T06:24:49.677Z,8.97
2019-04-03T06:27:19.127Z,4.70
2019-04-03T06:29:44.840Z,4.87
2019-04-03T06:32:12.391Z,5.10
2019-04-03T06:34:42.712Z,6.13
2019-04-03T06:37:07.549Z,5.00
2019-04-03T06:39:35.869Z,5.33
2019-04-03T06:42:03.426Z,9.40
2019-04-03T06:44:31.072Z,8.33
2019-04-03T06:47:00.590Z,5.37
2019-04-03T06:49:26.227Z,9.10
2019-04-03T06:51:53.778Z,7.33
2019-04-03T06:54:21.331Z,9.50
2019-04-03T06:56:49.117Z,17.93
2019-04-03T06:59:17.023Z,22.67
2019-04-03T07:01:44.095Z,11.73
2019-04-03T07:04:11.659Z,12.43
2019-04-03T07:06:39.216Z,8.10
2019-04-03T07:09:06.775Z,6.63
2019-04-03T07:11:34.337Z,7.50
2019-04-03T07:14:01.892Z,7.50
2019-04-03T07:16:29.457Z,12.40
2019-04-03T07:18:57.014Z,9.30
2019-04-03T07:21:27.121Z,8.23
2019-04-03T07:23:52.360Z,11.77
2019-04-03T07:26:20.714Z,12.53
2019-04-03T07:28:49.062Z,8.60
2019-04-03T07:31:16.624Z,6.83
2019-04-03T07:33:45.202Z,8.53
2019-04-03T07:36:13.475Z,7.00
2019-04-03T07:38:41.199Z,8.20
2019-04-03T07:41:08.631Z,7.83
2019-04-03T07:43:36.186Z,6.03
2019-04-03T07:46:04.021Z,7.10
2019-04-03T07:48:33.050Z,6.80
2019-04-03T07:50:58.936Z,5.97
2019-04-03T07:53:26.491Z,4.13
2019-04-03T07:55:55.364Z,3.60
2019-04-03T07:58:25.048Z,4.33
2019-04-03T08:00:51.416Z,6.70
2019-04-03T08:03:20.750Z,3.90
2019-04-03T08:05:46.571Z,5.73
2019-04-03T08:08:14.127Z,4.07
2019-04-03T08:10:42.451Z,3.87
2019-04-03T08:13:10.020Z,9.80
2019-04-03T08:15:38.773Z,3.00
2019-04-03T08:18:06.193Z,4.40
2019-04-03T08:20:33.990Z,2.70
2019-04-03T08:23:01.353Z,2.80
2019-04-03T08:25:29.031Z,4.20
2019-04-03T08:27:57.084Z,3.60
2019-04-03T08:30:24.513Z,5.57
2019-04-03T08:32:52.084Z,3.43
2019-04-03T08:35:23.080Z,5.00
2019-04-03T08:37:47.363Z,4.13
2019-04-03T08:40:15.697Z,3.60
2019-04-03T08:42:43.254Z,3.60
2019-04-03T08:45:10.811Z,4.77
2019-04-03T08:47:38.578Z,5.20
2019-04-03T08:50:07.711Z,5.00
2019-04-03T08:52:37.087Z,4.50
2019-04-03T08:55:02.883Z,4.70
2019-04-03T08:57:30.573Z,5.77
2019-04-03T09:00:00.109Z,3.80
2019-04-03T09:02:25.667Z,4.97
2019-04-03T09:04:53.223Z,3.90
2019-04-03T09:07:24.652Z,4.20
2019-04-03T09:09:49.608Z,5.00
2019-04-03T09:12:17.067Z,6.60
2019-04-03T09:14:44.586Z,5.40
2019-04-03T09:17:12.151Z,7.40
2019-04-03T09:19:41.721Z,5.03
2019-04-03T09:22:07.430Z,6.60
2019-04-03T09:24:35.020Z,9.00
2019-04-03T09:27:03.552Z,10.63
2019-04-03T09:29:31.123Z,10.60
2019-04-03T09:31:58.692Z,10.03
2019-04-03T09:34:29.714Z,18.00
2019-04-03T09:36:55.794Z,8.87
2019-04-03T09:39:23.364Z,9.80
2019-04-03T09:41:51.100Z,13.93
2019-04-03T09:44:18.560Z,9.63
2019-04-03T09:46:46.138Z,14.43
2019-04-03T09:49:13.706Z,10.37
2019-04-03T09:51:41.442Z,10.50
2019-04-03T09:54:09.197Z,9.17
2019-04-03T09:56:37.540Z,11.67
2019-04-03T09:59:06.706Z,14.40
2019-04-03T10:01:33.957Z,13.13
2019-04-03T10:04:01.264Z,13.93
2019-04-03T10:06:31.028Z,9.73
2019-04-03T10:08:57.475Z,9.17
2019-04-03T10:11:25.038Z,10.03
2019-04-03T10:13:52.601Z,10.77
2019-04-03T10:16:20.159Z,12.10
2019-04-03T10:18:47.722Z,8.77
2019-04-03T10:21:15.274Z,7.90
2019-04-03T10:23:42.836Z,10.47
2019-04-03T10:26:10.406Z,12.70
2019-04-03T10:28:37.981Z,13.17
2019-04-03T10:31:05.825Z,13.67
2019-04-03T10:33:33.157Z,12.10
2019-04-03T10:36:00.717Z,16.63
2019-04-03T10:38:28.484Z,13.07
2019-04-03T10:40:57.045Z,12.43
2019-04-03T10:43:23.492Z,9.80
2019-04-03T10:45:51.064Z,9.77
2019-04-03T10:48:20.579Z,11.03
2019-04-03T10:50:48.298Z,10.20
2019-04-03T10:53:19.753Z,11.80
2019-04-03T10:55:45.351Z,11.50
2019-04-03T10:58:12.912Z,15.40
2019-04-03T11:00:40.476Z,13.37
2019-04-03T11:03:08.447Z,11.90
2019-04-03T11:05:36.631Z,8.40
2019-04-03T11:08:04.199Z,10.20
2019-04-03T11:10:31.973Z,8.17
2019-04-03T11:13:02.270Z,6.07
2019-04-03T11:15:27.086Z,8.70
2019-04-03T11:17:54.864Z,8.30
2019-04-03T11:20:22.247Z,7.60
2019-04-03T11:22:49.811Z,5.73
2019-04-03T11:25:17.406Z,5.33
2019-04-03T11:27:46.168Z,6.70
2019-04-03T11:30:16.965Z,5.90
2019-04-03T11:32:42.128Z,6.60
2019-04-03T11:35:09.895Z,6.63
2019-04-03T11:37:37.454Z,5.70
2019-04-03T11:40:06.029Z,6.17
2019-04-03T11:42:33.474Z,4.37
2019-04-03T11:45:04.749Z,5.10
2019-04-03T11:47:31.354Z,4.23
2019-04-03T11:49:58.916Z,2.90
2019-04-03T11:52:26.569Z,2.87
2019-04-03T11:54:54.124Z,3.60
2019-04-03T11:57:21.835Z,4.40
2019-04-03T11:59:49.288Z,4.60
2019-04-03T12:02:17.152Z,3.00
2019-04-03T12:04:44.668Z,4.17
2019-04-03T12:07:12.107Z,7.33
2019-04-03T12:09:39.660Z,4.53
2019-04-03T12:12:09.446Z,3.50
2019-04-03T12:14:34.828Z,3.97
2019-04-03T12:17:02.461Z,4.10
2019-04-03T12:19:29.989Z,4.80
2019-04-03T12:21:57.688Z,3.43
2019-04-03T12:24:25.179Z,3.33
2019-04-03T12:26:55.415Z,3.40
2019-04-03T12:29:21.493Z,4.83
2019-04-03T12:31:47.968Z,4.10
2019-04-03T12:34:15.519Z,6.13
2019-04-03T12:36:46.105Z,3.13
2019-04-03T12:39:11.530Z,3.77
2019-04-03T12:41:42.779Z,3.70
2019-04-03T12:44:07.952Z,5.63
2019-04-03T12:46:36.139Z,4.43
2019-04-03T12:49:06.311Z,4.63
2019-04-03T12:51:31.552Z,4.30
2019-04-03T12:53:58.907Z,5.33
2019-04-03T12:56:29.392Z,6.83
2019-04-03T12:58:54.348Z,6.83
2019-04-03T13:01:23.421Z,4.60
2019-04-03T13:03:50.566Z,6.00
2019-04-03T13:06:18.014Z,4.13
2019-04-03T13:08:45.387Z,5.87
2019-04-03T13:11:13.141Z,4.93
2019-04-03T13:13:41.473Z,8.60
2019-04-03T13:16:10.422Z,8.27
2019-04-03T13:18:36.630Z,11.43
2019-04-03T13:21:04.423Z,8.13
2019-04-03T13:23:32.555Z,9.33
2019-04-03T13:26:00.103Z,6.97
2019-04-03T13:28:28.073Z,5.27
2019-04-03T13:30:57.425Z,5.53
2019-04-03T13:33:24.836Z,9.63
2019-04-03T13:35:52.410Z,6.43
2019-04-03T13:38:19.963Z,8.13
2019-04-03T13:40:48.375Z,4.13
2019-04-03T13:43:18.093Z,3.73
2019-04-03T13:45:45.735Z,6.00
2019-04-03T13:48:14.391Z,4.00
2019-04-03T13:50:45.455Z,2.70
2019-04-03T13:53:11.027Z,4.63
2019-04-03T13:55:40.222Z,3.27
2019-04-03T13:58:06.189Z,3.73
2019-04-03T14:00:35.019Z,2.97
2019-04-03T14:03:03.790Z,6.20
2019-04-03T14:05:33.267Z,17.80
2019-04-03T14:07:59.639Z,5.30
2019-04-03T14:10:27.876Z,5.00
2019-04-03T14:12:54.794Z,7.43
2019-04-03T14:15:22.350Z,5.30
2019-04-03T14:17:56.469Z,5.60
2019-04-03T14:20:17.646Z,7.13
2019-04-03T14:22:46.523Z,6.50
2019-04-03T14:25:20.506Z,6.40
2019-04-03T14:27:41.091Z,5.57
2019-04-03T14:30:11.622Z,5.20
2019-04-03T14:32:37.824Z,5.83
2019-04-03T14:35:29.939Z,5.57
2019-04-03T14:37:32.962Z,6.33
2019-04-03T14:40:00.046Z,4.70
2019-04-03T14:42:27.610Z,4.80
2019-04-03T14:44:55.183Z,4.23
2019-04-03T14:47:23.433Z,4.80
2019-04-03T14:49:50.393Z,12.40
2019-04-03T14:52:17.948Z,4.00
2019-04-03T14:54:46.254Z,3.70
2019-04-03T14:57:20.389Z,4.33
2019-04-03T14:59:41.073Z,3.83
2019-04-03T15:02:10.548Z,5.40
2019-04-03T15:04:38.299Z,4.43
2019-04-03T15:07:09.216Z,4.00
2019-04-03T15:09:34.196Z,3.80
2019-04-03T15:12:01.595Z,5.23
2019-04-03T15:14:30.111Z,3.33
2019-04-03T15:16:57.703Z,6.60
2019-04-03T15:19:26.180Z,3.03
2019-04-03T15:21:56.747Z,3.73
2019-04-03T15:24:22.102Z,4.73
2019-04-03T15:26:53.005Z,3.43
2019-04-03T15:29:17.265Z,3.10
2019-04-03T15:31:46.703Z,2.53
2019-04-03T15:34:13.416Z,2.70
2019-04-03T15:36:41.363Z,2.60
2019-04-03T15:39:08.596Z,2.40
2019-04-03T15:41:36.171Z,2.80
2019-04-03T15:44:03.799Z,2.50
2019-04-03T15:46:33.977Z,3.17
2019-04-03T15:48:58.948Z,4.07
2019-04-03T15:51:26.519Z,3.20
2019-04-03T15:53:57.048Z,6.97
2019-04-03T15:56:23.645Z,3.60
2019-04-03T15:58:52.016Z,6.00
2019-04-03T16:01:18.832Z,5.70
2019-04-03T16:03:48.890Z,5.90
2019-04-03T16:06:15.019Z,4.47
2019-04-03T16:08:44.923Z,3.87
2019-04-03T16:11:10.368Z,6.20
2019-04-03T16:13:37.777Z,3.50
2019-04-03T16:16:05.343Z,2.77
2019-04-03T16:18:33.930Z,2.83
2019-04-03T16:21:01.711Z,4.83
2019-04-03T16:23:28.880Z,5.80
2019-04-03T16:25:56.519Z,3.47
2019-04-03T16:28:24.067Z,4.00
2019-04-03T16:30:52.731Z,5.13
2019-04-03T16:33:24.032Z,3.63
2019-04-03T16:35:48.059Z,5.30
2019-04-03T16:38:15.351Z,4.90
2019-04-03T16:40:46.442Z,5.63
2019-04-03T16:43:11.548Z,3.10
2019-04-03T16:45:40.026Z,2.70
2019-04-03T16:48:09.152Z,1.90
2019-04-03T16:50:36.018Z,2.80
2019-04-03T16:53:03.566Z,2.30
2019-04-03T16:55:31.158Z,6.17
2019-04-03T16:57:58.714Z,5.37
2019-04-03T17:00:26.362Z,6.90
2019-04-03T17:02:55.661Z,3.70
2019-04-03T17:05:21.859Z,3.50
2019-04-03T17:07:49.097Z,5.60
2019-04-03T17:10:19.384Z,4.73
2019-04-03T17:12:49.577Z,13.60
2019-04-03T17:15:14.555Z,8.13
2019-04-03T17:17:44.733Z,9.83
2019-04-03T17:20:09.836Z,5.83
2019-04-03T17:22:40.901Z,3.33
2019-04-03T17:25:05.011Z,6.30
2019-04-03T17:27:32.563Z,6.03
2019-04-03T17:30:00.203Z,7.10
2019-04-03T17:32:29.925Z,4.53
2019-04-03T17:34:56.874Z,6.00
2019-04-03T17:37:25.496Z,7.67
2019-04-03T17:39:53.963Z,4.17
2019-04-03T17:42:21.533Z,9.13
2019-04-03T17:44:49.092Z,11.87
2019-04-03T17:47:19.253Z,10.97
2019-04-03T17:49:44.359Z,7.77
2019-04-03T17:52:11.923Z,4.73
2019-04-03T17:54:39.512Z,4.70
2019-04-03T17:57:07.067Z,4.07
2019-04-03T17:59:34.626Z,4.33
2019-04-03T18:02:02.187Z,3.90
2019-04-03T18:04:29.771Z,4.53
2019-04-03T18:06:58.136Z,3.10
2019-04-03T18:09:26.490Z,3.47
2019-04-03T18:11:54.119Z,6.10
2019-04-03T18:14:21.684Z,6.90
2019-04-03T18:16:49.247Z,8.33
2019-04-03T18:19:16.812Z,6.70
2019-04-03T18:21:44.451Z,9.03
2019-04-03T18:24:12.012Z,6.90
2019-04-03T18:26:39.571Z,4.30
2019-04-03T18:29:07.206Z,2.60
2019-04-03T18:31:34.784Z,4.10
2019-04-03T18:34:02.348Z,3.07
2019-04-03T18:36:31.343Z,3.70
2019-04-03T18:38:59.474Z,4.87
2019-04-03T18:41:27.038Z,2.77
2019-04-03T18:43:55.084Z,3.77
2019-04-03T18:46:32.052Z,5.27
2019-04-03T18:48:54.589Z,3.20
2019-04-03T18:51:20.348Z,4.10
2019-04-03T18:53:47.730Z,3.30
2019-04-03T18:56:15.527Z,3.77
2019-04-03T18:58:44.034Z,4.80
2019-04-03T19:01:10.551Z,4.60
2019-04-03T19:03:38.124Z,3.07
2019-04-03T19:06:06.637Z,3.37
2019-04-03T19:08:34.205Z,3.47
2019-04-03T19:11:03.539Z,3.00
2019-04-03T19:13:29.380Z,2.80
2019-04-03T19:15:56.938Z,4.57
2019-04-03T19:18:24.509Z,4.90
2019-04-03T19:20:52.065Z,4.80
2019-04-03T19:23:19.625Z,5.13
2019-04-03T19:25:47.189Z,3.83
2019-04-03T19:28:14.752Z,3.80
2019-04-03T19:30:44.308Z,3.95
2019-04-03T19:33:12.074Z,4.53
2019-04-03T19:35:40.415Z,4.77
2019-04-03T19:38:07.990Z,8.10
2019-04-03T19:40:35.542Z,9.60
2019-04-03T19:43:03.119Z,4.43
2019-04-03T19:45:30.686Z,8.47
2019-04-03T19:47:58.247Z,3.60
2019-04-03T19:50:25.803Z,3.13
2019-04-03T19:52:55.571Z,3.40
2019-04-03T19:55:23.524Z,3.20
2019-04-03T19:57:51.036Z,7.30
2019-04-03T20:00:19.233Z,5.27
2019-04-03T20:02:46.818Z,3.50
2019-04-03T20:05:18.672Z,3.87
2019-04-03T20:07:43.403Z,3.07
2019-04-03T20:10:12.083Z,2.80
2019-04-03T20:12:42.037Z,3.57
2019-04-03T20:15:12.442Z,5.83
2019-04-03T20:17:41.784Z,3.47
2019-04-03T20:20:09.380Z,4.40
2019-04-03T20:22:38.306Z,3.77
2019-04-03T20:25:04.850Z,4.50
2019-04-03T20:27:33.513Z,3.50
2019-04-03T20:30:01.841Z,4.40
2019-04-03T20:32:29.405Z,4.07
2019-04-03T20:34:56.958Z,3.53
2019-04-03T20:37:26.596Z,3.50
2019-04-03T20:39:54.486Z,5.30
2019-04-03T20:42:22.122Z,3.77
2019-04-03T20:44:50.010Z,3.90
2019-04-03T20:47:17.606Z,4.30
2019-04-03T20:49:45.535Z,3.43
2019-04-03T20:52:15.063Z,3.90
2019-04-03T20:54:42.619Z,3.80
2019-04-03T20:57:13.324Z,4.53
2019-04-03T20:59:38.268Z,3.70
2019-04-03T21:02:08.095Z,4.20
2019-04-03T21:04:33.449Z,4.80
2019-04-03T21:07:01.011Z,6.17
2019-04-03T21:09:30.447Z,4.73
2019-04-03T21:11:57.237Z,7.03
2019-04-03T21:14:24.797Z,4.00
2019-04-03T21:16:52.358Z,7.80
2019-04-03T21:19:21.425Z,3.97
2019-04-03T21:21:47.523Z,4.43
2019-04-03T21:24:15.432Z,7.77
2019-04-03T21:26:44.336Z,7.30
2019-04-03T21:29:11.887Z,7.50
2019-04-03T21:31:39.615Z,8.50
2019-04-03T21:34:08.229Z,9.00
2019-04-03T21:36:38.423Z,10.50
2019-04-03T21:39:03.936Z,8.07
2019-04-03T21:41:33.643Z,6.97
2019-04-03T21:44:01.204Z,6.50
2019-04-03T21:46:28.754Z,6.47
2019-04-03T21:48:57.227Z,7.80
2019-04-03T21:51:24.784Z,5.83
2019-04-03T21:53:55.726Z,5.87
2019-04-03T21:56:19.943Z,5.83
2019-04-03T21:58:47.488Z,6.67
2019-04-03T22:01:15.851Z,5.20
2019-04-03T22:03:45.329Z,5.97
2019-04-03T22:06:12.903Z,5.90
2019-04-03T22:08:42.366Z,8.00
2019-04-03T22:11:09.983Z,6.80
2019-04-03T22:13:38.483Z,7.03
2019-04-03T22:16:05.138Z,6.50
2019-04-03T22:18:32.699Z,7.83
2019-04-03T22:21:01.876Z,7.37
2019-04-03T22:23:29.770Z,6.90
2019-04-03T22:25:58.094Z,6.00
2019-04-03T22:28:25.640Z,6.60
2019-04-03T22:30:53.196Z,6.50
2019-04-03T22:33:22.675Z,9.50
2019-04-03T22:35:50.251Z,7.10
2019-04-03T22:38:17.811Z,6.80
2019-04-03T22:40:45.363Z,7.10
2019-04-03T22:43:15.308Z,7.33
2019-04-03T22:45:40.519Z,9.07
2019-04-03T22:48:09.983Z,9.07
2019-04-03T22:50:37.544Z,7.87
2019-04-03T22:53:05.155Z,6.87
2019-04-03T22:55:32.709Z,7.70
2019-04-03T22:58:00.266Z,9.07
2019-04-03T23:00:27.845Z,8.03
2019-04-03T23:02:55.407Z,7.37
2019-04-03T23:05:23.730Z,8.37
2019-04-03T23:07:52.057Z,8.27
2019-04-03T23:10:18.892Z,7.20
2019-04-03T23:12:48.370Z,8.70
2019-04-03T23:15:15.931Z,8.43
2019-04-03T23:17:45.440Z,7.90
2019-04-03T23:20:13.076Z,8.23
2019-04-03T23:22:40.627Z,9.20
2019-04-03T23:25:08.182Z,9.60
2019-04-03T23:27:35.735Z,8.37
2019-04-03T23:30:03.319Z,8.97
2019-04-03T23:32:30.871Z,8.50
2019-04-03T23:34:58.436Z,13.70
2019-04-03T23:37:25.993Z,9.10
2019-04-03T23:39:55.471Z,8.67
2019-04-03T23:42:23.035Z,8.60
2019-04-03T23:44:52.524Z,8.60
2019-04-03T23:47:20.083Z,7.80
2019-04-03T23:49:51.193Z,7.10
2019-04-03T23:52:17.963Z,6.80
2019-04-03T23:54:45.514Z,5.40
2019-04-03T23:57:13.063Z,6.57
2019-04-03T23:59:44.105Z,9.63
